Accueil
METAR-TAF:

METAR-TAF

Aéroports :

Wunstorf, Allemagne

latitude: 52-27N, longitude: 009-26E, altitude: 57 m

Observation

Le bulletin a été fait il y a 1 heure et 5 minutes, à 01:20 UTC
Vent 4 kt de nord-ouest
Température 2°C
Humidité 69%
Pression 1025 hPa
Visibilité: 8000 m

METAR: ETNW 170120Z AUTO 31004KT 8000 // ////// 02/M03 Q1025 ///

Heure: 04:25 (02:25 UTC)

Prévision

Le bulletin a été fait il y a 9 heures et 26 minutes, à 16:59 UTC
Prévision valable du 16 à 17 UTC au 17 à 17 UTC
Vent 10 kt de nord
Visibilité 10 km ou plus
Nuages fragmentés à une hauteur de 8000 ft
Nuages fragmentés à une hauteur de 24000 ft

TAF: ETNW 161659Z 1617/1717 01010KT 9999 NSW BKN080 BKN240 BY ETGL

Observations et prévisions météorologiques de plus de 4000 aéroports (messages METAR et TAF).

Les stations disponibles sont représentées par des disques jaunes et rouges sur la carte.

Passer la souris dessus pour voir le nom de la station.

Cliquer dessus pour voir les observations et prévisions météorologiques.

Pour changer de carte: cliquez sur les boutons verts avec une croix noire pour zoomer, sur le bouton vert avec un tiret pour effectuer un zoom arrière, ou sur les flèches vertes pour les cartes adjacentes.


METAR-TAF: